Time;durP1;ratioP1;P1;durP2;ratioP2;P2;SDS_P1;SDS_P2;PMS_P1;PMS_P2;Temp;Humidity;BMP_temperature;BMP_pressure;BME280_temperature;BME280_humidity;BME280_pressure;Samples;Min_cycle;Max_cycle;Signal;HPM_P1;HPM_P2
2022/12/13 00:03:22;;;;;;;6.47;1.70;;;;;;;;;;21260742;27;20054;-62
2022/12/13 00:13:24;;;;;;;8.40;1.48;;;;;;;;;;21260690;27;20406;-63
2022/12/13 00:23:28;;;;;;;13.93;2.33;;;;;;;;;;21260833;27;20069;-63
2022/12/13 00:33:31;;;;;;;11.38;1.95;;;;;;;;;;21258325;27;20051;-62
2022/12/13 00:43:33;;;;;;;9.65;1.80;;;;;;;;;;21257827;27;20054;-61
2022/12/13 00:53:36;;;;;;;11.35;2.10;;;;;;;;;;21256503;27;20051;-62
2022/12/13 01:03:39;;;;;;;14.55;1.70;;;;;;;;;;21256186;27;20050;-62
2022/12/13 01:13:41;;;;;;;11.27;1.80;;;;;;;;;;21256864;27;20055;-63
2022/12/13 01:23:44;;;;;;;10.23;2.83;;;;;;;;;;21253878;27;20048;-63
2022/12/13 01:33:48;;;;;;;16.45;2.33;;;;;;;;;;21252682;27;20134;-62
2022/12/13 01:43:56;;;;;;;10.45;1.98;;;;;;;;;;21252125;27;20082;-63
2022/12/13 01:53:59;;;;;;;13.73;2.15;;;;;;;;;;21251229;27;20070;-62
2022/12/13 02:04:02;;;;;;;9.60;1.92;;;;;;;;;;21250045;27;20047;-62
2022/12/13 02:14:05;;;;;;;12.82;2.30;;;;;;;;;;21250425;27;20428;-63
2022/12/13 02:24:08;;;;;;;12.68;1.80;;;;;;;;;;21249812;27;20417;-62
2022/12/13 02:34:16;;;;;;;15.40;2.78;;;;;;;;;;21249728;27;20039;-62
2022/12/13 02:44:23;;;;;;;14.40;2.60;;;;;;;;;;21248998;27;20066;-61
2022/12/13 02:54:29;;;;;;;7.65;1.58;;;;;;;;;;21248713;28;20047;-61
2022/12/13 03:06:28;;;;;;;11.60;2.08;;;;;;;;;;21247618;28;20055;-62
2022/12/13 03:15:15;;;;;;;10.50;2.00;;;;;;;;;;21251113;27;20070;-62
2022/12/13 03:25:19;;;;;;;13.63;1.90;;;;;;;;;;21264807;27;20103;-62
2022/12/13 03:35:25;;;;;;;7.03;1.30;;;;;;;;;;21263702;27;20498;-61
2022/12/13 03:45:29;;;;;;;5.78;1.23;;;;;;;;;;21263307;27;20074;-63
2022/12/13 03:55:36;;;;;;;5.57;0.77;;;;;;;;;;21261266;27;20474;-62
2022/12/13 04:05:39;;;;;;;6.50;1.50;;;;;;;;;;21261501;27;20058;-63
2022/12/13 04:15:47;;;;;;;5.22;1.52;;;;;;;;;;21260159;27;20473;-63
2022/12/13 04:25:51;;;;;;;6.10;1.02;;;;;;;;;;21259734;27;20047;-62
2022/12/13 04:35:59;;;;;;;4.07;1.20;;;;;;;;;;21258503;27;20046;-62
2022/12/13 04:46:01;;;;;;;4.35;0.90;;;;;;;;;;21258112;27;20093;-63
2022/12/13 04:56:06;;;;;;;3.63;0.77;;;;;;;;;;21255945;27;20089;-64
2022/12/13 05:06:11;;;;;;;1.75;0.40;;;;;;;;;;21257663;27;20410;-64
2022/12/13 05:16:16;;;;;;;0.30;0.20;;;;;;;;;;21257329;27;20439;-64
2022/12/13 05:26:20;;;;;;;3.85;0.50;;;;;;;;;;21255273;27;20585;-64
2022/12/13 05:36:24;;;;;;;2.58;1.13;;;;;;;;;;21252510;27;20121;-63
2022/12/13 05:46:28;;;;;;;3.17;1.17;;;;;;;;;;21252271;27;20078;-63
2022/12/13 05:56:32;;;;;;;6.38;2.80;;;;;;;;;;21252304;27;20126;-64
2022/12/13 06:06:36;;;;;;;6.78;4.22;;;;;;;;;;21252545;27;20062;-65
2022/12/13 06:16:39;;;;;;;7.65;4.53;;;;;;;;;;21250520;27;20478;-62
2022/12/13 06:26:42;;;;;;;4.18;2.53;;;;;;;;;;21250449;27;20050;-62
2022/12/13 06:36:46;;;;;;;5.53;2.67;;;;;;;;;;21249246;27;20099;-62
2022/12/13 06:46:50;;;;;;;5.72;3.03;;;;;;;;;;21249535;27;20047;-62
2022/12/13 06:56:53;;;;;;;4.05;2.80;;;;;;;;;;21264387;27;20469;-62
2022/12/13 07:06:57;;;;;;;7.00;2.97;;;;;;;;;;21266513;27;20086;-63
2022/12/13 07:16:59;;;;;;;5.15;2.10;;;;;;;;;;21269307;27;20089;-62
2022/12/13 07:27:02;;;;;;;4.90;1.25;;;;;;;;;;21263569;27;20047;-62
2022/12/13 07:37:05;;;;;;;5.70;2.17;;;;;;;;;;21263165;27;20451;-62
2022/12/13 07:47:06;;;;;;;5.75;1.65;;;;;;;;;;21262726;27;20406;-64
2022/12/13 07:57:08;;;;;;;3.92;2.20;;;;;;;;;;21260814;27;20126;-63
2022/12/13 08:07:10;;;;;;;6.60;2.08;;;;;;;;;;21260184;27;20491;-61
2022/12/13 08:17:12;;;;;;;5.72;1.45;;;;;;;;;;21259512;27;20083;-62
2022/12/13 08:27:14;;;;;;;3.67;1.10;;;;;;;;;;21259299;27;20043;-62
2022/12/13 08:37:15;;;;;;;2.42;1.25;;;;;;;;;;21257522;27;20486;-64
2022/12/13 08:47:21;;;;;;;6.68;1.55;;;;;;;;;;21257485;27;20411;-64
2022/12/13 08:57:23;;;;;;;7.75;3.92;;;;;;;;;;21256114;27;20043;-63
2022/12/13 09:07:25;;;;;;;6.65;2.80;;;;;;;;;;21255823;27;20497;-63
2022/12/13 09:17:27;;;;;;;6.47;3.40;;;;;;;;;;21253404;27;20046;-63
2022/12/13 09:27:30;;;;;;;6.32;2.28;;;;;;;;;;21253945;27;20051;-62
2022/12/13 09:37:33;;;;;;;6.95;2.60;;;;;;;;;;21252102;27;20047;-64
2022/12/13 09:47:40;;;;;;;10.10;3.40;;;;;;;;;;21251492;27;20103;-62
2022/12/13 09:57:43;;;;;;;3.03;1.35;;;;;;;;;;21250789;27;20134;-69
2022/12/13 10:07:45;;;;;;;4.10;1.40;;;;;;;;;;21174217;27;20441;-62
2022/12/13 10:17:48;;;;;;;3.58;1.30;;;;;;;;;;21166279;28;20104;-61
2022/12/13 10:27:51;;;;;;;2.55;0.82;;;;;;;;;;21163522;28;20501;-62
2022/12/13 10:37:54;;;;;;;4.43;1.55;;;;;;;;;;21164162;28;20050;-71
2022/12/13 10:47:55;;;;;;;5.85;1.88;;;;;;;;;;21162651;28;20071;-69
2022/12/13 10:58:00;;;;;;;11.23;4.53;;;;;;;;;;21162739;28;20502;-68
2022/12/13 11:08:21;;;;;;;12.70;5.32;;;;;;;;;;21162289;28;20088;-71
2022/12/13 11:18:24;;;;;;;5.38;1.92;;;;;;;;;;21157021;28;20051;-74
2022/12/13 11:28:26;;;;;;;4.50;2.40;;;;;;;;;;21155439;28;20052;-75
2022/12/13 11:38:31;;;;;;;6.10;1.83;;;;;;;;;;21183513;28;20546;-73
2022/12/13 11:48:42;;;;;;;9.05;2.10;;;;;;;;;;21176538;28;20070;-73
2022/12/13 11:59:00;;;;;;;6.75;2.58;;;;;;;;;;21170968;28;20047;-68
2022/12/13 12:09:05;;;;;;;5.53;2.20;;;;;;;;;;21175080;27;20059;-63
2022/12/13 12:19:17;;;;;;;5.38;2.53;;;;;;;;;;21167585;28;20104;-65
2022/12/13 12:29:34;;;;;;;6.25;2.70;;;;;;;;;;21168753;28;20380;-66
2022/12/13 12:39:41;;;;;;;6.75;2.70;;;;;;;;;;21169038;28;20047;-76
2022/12/13 12:49:52;;;;;;;7.82;2.83;;;;;;;;;;21167784;28;20051;-63
2022/12/13 13:00:03;;;;;;;5.22;2.90;;;;;;;;;;21147311;28;20051;-61
2022/12/13 13:10:07;;;;;;;5.05;3.50;;;;;;;;;;21172273;28;20139;-67
2022/12/13 13:20:16;;;;;;;4.60;3.25;;;;;;;;;;21170839;28;20176;-62
2022/12/13 13:30:18;;;;;;;7.20;3.97;;;;;;;;;;21239910;27;20062;-62
2022/12/13 13:40:26;;;;;;;12.15;7.38;;;;;;;;;;21253817;27;20475;-63
2022/12/13 13:50:28;;;;;;;12.30;9.05;;;;;;;;;;21252218;27;20047;-63
2022/12/13 14:00:35;;;;;;;7.75;5.38;;;;;;;;;;21250561;27;20400;-62
2022/12/13 14:10:43;;;;;;;6.03;3.58;;;;;;;;;;21250897;27;20047;-62
2022/12/13 14:20:49;;;;;;;2.77;1.50;;;;;;;;;;21250356;27;20043;-64
2022/12/13 14:30:51;;;;;;;3.08;1.77;;;;;;;;;;21249960;27;20079;-63
2022/12/13 14:40:55;;;;;;;3.17;1.90;;;;;;;;;;21248972;27;20395;-61
2022/12/13 14:50:57;;;;;;;1.85;1.48;;;;;;;;;;21248758;27;20051;-61
2022/12/13 15:00:59;;;;;;;2.85;0.70;;;;;;;;;;21247148;28;20100;-61
2022/12/13 15:11:01;;;;;;;1.33;0.70;;;;;;;;;;21251174;27;20050;-62
2022/12/13 15:21:16;;;;;;;2.17;0.80;;;;;;;;;;21264184;27;20479;-63
2022/12/13 15:31:19;;;;;;;2.28;1.38;;;;;;;;;;21264112;27;20047;-65
2022/12/13 15:41:27;;;;;;;1.52;0.85;;;;;;;;;;21262309;27;20448;-63
2022/12/13 15:51:29;;;;;;;3.33;0.88;;;;;;;;;;21262740;27;20051;-63
2022/12/13 16:01:32;;;;;;;2.17;0.90;;;;;;;;;;21260346;27;20051;-62
2022/12/13 16:11:48;;;;;;;5.57;1.70;;;;;;;;;;21261591;27;20122;-64
2022/12/13 16:21:50;;;;;;;5.70;2.25;;;;;;;;;;21218843;27;20544;-59
2022/12/13 16:31:55;;;;;;;3.67;1.30;;;;;;;;;;21182932;27;20040;-59
2022/12/13 16:41:57;;;;;;;5.05;1.42;;;;;;;;;;21170455;28;20124;-65
2022/12/13 16:51:59;;;;;;;3.65;2.08;;;;;;;;;;21170189;28;20043;-60
2022/12/13 17:02:01;;;;;;;4.03;2.05;;;;;;;;;;21170758;27;20101;-59
2022/12/13 17:12:03;;;;;;;1.42;0.80;;;;;;;;;;21169030;27;20040;-60
2022/12/13 17:22:05;;;;;;;2.08;1.02;;;;;;;;;;21167018;28;20043;-62
2022/12/13 17:32:08;;;;;;;4.00;1.10;;;;;;;;;;21168072;27;20082;-62
2022/12/13 17:42:10;;;;;;;3.63;1.35;;;;;;;;;;21166621;28;20130;-63
2022/12/13 17:52:12;;;;;;;2.05;0.88;;;;;;;;;;21167071;28;20540;-66
2022/12/13 18:02:16;;;;;;;2.25;1.35;;;;;;;;;;21165858;28;20052;-63
2022/12/13 18:12:17;;;;;;;2.47;1.10;;;;;;;;;;21164912;28;20047;-67
2022/12/13 18:22:19;;;;;;;1.67;0.60;;;;;;;;;;21164302;28;20058;-67
2022/12/13 18:32:22;;;;;;;2.05;0.77;;;;;;;;;;21146183;28;20046;-66
2022/12/13 18:42:23;;;;;;;1.67;0.75;;;;;;;;;;21204708;27;20494;-62
2022/12/13 18:52:25;;;;;;;4.60;1.90;;;;;;;;;;21230239;27;20474;-63
2022/12/13 19:02:28;;;;;;;3.05;0.93;;;;;;;;;;21248340;28;20055;-63
2022/12/13 19:12:31;;;;;;;2.65;0.90;;;;;;;;;;21248095;28;20043;-63
2022/12/13 19:22:32;;;;;;;1.92;0.45;;;;;;;;;;21248200;28;20047;-63
2022/12/13 19:32:34;;;;;;;4.32;1.23;;;;;;;;;;21247168;28;20047;-63
2022/12/13 19:42:36;;;;;;;3.10;0.70;;;;;;;;;;21247087;28;20135;-64
2022/12/13 19:52:39;;;;;;;2.88;0.90;;;;;;;;;;21245091;28;20514;-63
2022/12/13 20:02:41;;;;;;;3.05;0.90;;;;;;;;;;21172543;28;20063;-64
2022/12/13 20:12:43;;;;;;;3.10;0.70;;;;;;;;;;21175623;28;20040;-62
2022/12/13 20:22:45;;;;;;;1.90;1.13;;;;;;;;;;21174035;28;20522;-62
2022/12/13 20:32:47;;;;;;;2.05;0.90;;;;;;;;;;21173094;28;20054;-63
2022/12/13 20:42:49;;;;;;;2.80;0.68;;;;;;;;;;21171590;28;20059;-63
2022/12/13 20:52:53;;;;;;;3.55;0.65;;;;;;;;;;21172200;28;20051;-62
2022/12/13 21:02:55;;;;;;;8.23;3.63;;;;;;;;;;21172005;28;20047;-62
2022/12/13 21:12:57;;;;;;;3.72;1.27;;;;;;;;;;21168806;28;20479;-68
2022/12/13 21:22:59;;;;;;;9.75;4.10;;;;;;;;;;21170848;28;20403;-64
2022/12/13 21:33:01;;;;;;;1.98;0.30;;;;;;;;;;21172713;28;20055;-63
2022/12/13 21:43:04;;;;;;;1.17;0.50;;;;;;;;;;21171341;28;20552;-62
2022/12/13 21:53:06;;;;;;;2.17;1.35;;;;;;;;;;21167242;28;20058;-63
2022/12/13 22:03:11;;;;;;;0.75;0.20;;;;;;;;;;21166905;28;20087;-65
2022/12/13 22:13:14;;;;;;;1.17;0.17;;;;;;;;;;21167583;28;20048;-63
2022/12/13 22:23:19;;;;;;;1.30;0.32;;;;;;;;;;21165844;28;20052;-62
2022/12/13 22:33:25;;;;;;;0.82;0.28;;;;;;;;;;21164872;28;20499;-62
2022/12/13 22:43:27;;;;;;;0.68;0.25;;;;;;;;;;21163652;28;20047;-64
2022/12/13 22:53:30;;;;;;;0.80;0.40;;;;;;;;;;21164165;28;20395;-63
2022/12/13 23:03:32;;;;;;;0.95;0.40;;;;;;;;;;21164121;28;20377;-62
2022/12/13 23:13:34;;;;;;;3.00;0.70;;;;;;;;;;21162286;28;20036;-64
2022/12/13 23:23:37;;;;;;;1.25;0.60;;;;;;;;;;21161494;28;20062;-62
2022/12/13 23:33:40;;;;;;;0.70;0.30;;;;;;;;;;21168850;28;20040;-64
2022/12/13 23:43:43;;;;;;;0.47;0.10;;;;;;;;;;21177972;28;20406;-61
2022/12/13 23:53:45;;;;;;;0.75;0.35;;;;;;;;;;21177054;28;20538;-63
